Grizzly Air Cargo 5145


PAJN
Juneau International Airport
Juneau, Alaska, US
PAPG
Petersburg James A Johnson Airport
Petersburg, Alaska, US

Activity Log

Date Flight Route Aircraft Duration
No Flights Yet

Route Details

Aircraft Information
Primary: Boeing 727-200F
Backup: Boeing 737-800BCF
Route Data
Distance: 124nm
Sched. Duration: 0h 30m
Avg. Duration: 0h 00m (-30m)
Times Flown: 0
Recm'd Route: GLAZZ1 ODECO
Planned Altitude: 17,000ft
Origin Wx: PAJN 231753Z 30007KT 4SM BR FEW002 BKN005 OVC036 00/M02 A2995 RMK AO2 SLP143 VIS LWR N I6000 T00001017 10000 20000 56037
Dest. Wx: PAPG 231756Z 26006KT 10SM FEW022 BKN090 M02/M03 A2999 RMK AO2 SLP158 T10221028 11022 21039 58031
Notes:

Financial History
Total Freight: 0lbs
Average Load: 0lbs/flt
Fuel Used: 0lbs
Avg. Fuel Used: 0lbs/flt
Fuel Expense: $0
Avg. Fuel Expense: $0
Avg. Fuel Cost: $0/lbs
Total Gross Income: $0
Pilot Pay: $0
Total Expenses: $0
Total Revenue: $0
Average Revenue: $0